首页
METAR-TAF:

METAR-TAF

机场 :

Kake, 阿拉斯加州, 美国

纬度: 56-57N, 经度: 133-54W, 海拔: 52米

当前天气观测

该预报发布于1小时和27分钟前的22:56 UTC
静风
温度 1°C
湿度 93%
气压 1015 hPa
能見度: 16.1公里
少量云层高于7000英尺

METAR: PAFE 072256Z AUTO 00000KT 10SM FEW070 01/00 A2996 RMK AO2 SLP157 T00060000 FZRANO

时间: 15:23 (00:23 UTC)


TAF: 丢失

超过4000个机场的气象观测和天气预报(METAR&TAF报告)。

可查询的气象台以黄色和红色小点在地图上表示。

将鼠标移到小点上方,可查看气象台名称。

然后点击查看天气观测和预报。

如需切换地图:点击带黑十字的绿色按钮放大地图;点击带横线的绿色按钮缩小地图;或者点击绿色箭头查看邻近地区的地图。


METAR-TAF: